Terminal Aerodrome Forecast
Issued by NWS Louisville, KY

Home | Current Version | Previous Version | Text Only | Print | Product List | Glossary On
Versions: 1 2 3 4 5 6 7 8 9 10 11 12 13
000
FTUS43 KLMK 201700
TAFSDF
TAF
KSDF 201724Z 2018/2124 VRB04KT P6SM SCT025 BKN035
     FM210800 VRB04KT 6SM BR SCT015
     FM211400 VRB04KT P6SM FEW040 SCT250=

USA.gov is the U.S. government's official web portal to all federal, state and local government web resources and services.